Terminal Aerodrome Forecast
Issued by NWS Charleston, WV

Current Version | Previous Version | Graphics & Text | Print | Product List | Glossary On
Versions: 1 2 3 4 5 6 7 8 9 10 11 12 13 14 15 16 17 18 19 20 21 22 23 24
000
FTUS41 KRLX 190912 AAA
TAFBKW
TAF AMD
KBKW 190912Z 1909/2006 30015G32KT P6SM -SHRA SCT008 OVC015
      TEMPO 1909/1911 BKN008
     FM191500 30014G24KT P6SM OVC015
     FM191800 29014G25KT P6SM OVC020
     FM192300 30014G24KT P6SM OVC035
     FM200500 29010KT P6SM SCT035=

USA.gov is the U.S. government's official web portal to all federal, state and local government web resources and services.